createdAt,value
2018-05-27T00:01:37.933Z,10.50
2018-05-27T00:04:05.463Z,9.50
2018-05-27T00:06:32.946Z,9.40
2018-05-27T00:09:00.609Z,10.13
2018-05-27T00:11:28.889Z,9.73
2018-05-27T00:13:56.444Z,9.60
2018-05-27T00:16:26.635Z,9.90
2018-05-27T00:18:54.125Z,9.97
2018-05-27T00:21:21.634Z,9.30
2018-05-27T00:23:49.905Z,9.53
2018-05-27T00:26:17.380Z,8.97
2018-05-27T00:28:44.880Z,9.33
2018-05-27T00:31:12.365Z,9.70
2018-05-27T00:33:39.863Z,9.07
2018-05-27T00:36:07.341Z,10.17
2018-05-27T00:38:34.854Z,11.03
2018-05-27T00:41:02.907Z,10.13
2018-05-27T00:43:31.607Z,9.47
2018-05-27T00:45:59.180Z,10.00
2018-05-27T00:48:27.426Z,9.83
2018-05-27T00:50:54.909Z,10.33
2018-05-27T00:56:23.228Z,10.53
2018-05-27T00:58:50.840Z,10.27
2018-05-27T01:01:18.448Z,9.70
2018-05-27T01:03:45.929Z,8.70
2018-05-27T01:06:13.410Z,10.20
2018-05-27T01:08:40.890Z,9.70
2018-05-27T01:11:08.380Z,11.70
2018-05-27T01:13:35.887Z,9.33
2018-05-27T01:16:04.484Z,9.97
2018-05-27T01:18:32.000Z,8.60
2018-05-27T01:20:59.480Z,11.30
2018-05-27T01:23:26.970Z,9.00
2018-05-27T01:25:55.129Z,10.23
2018-05-27T01:28:23.391Z,10.20
2018-05-27T01:30:50.884Z,10.37
2018-05-27T01:33:20.029Z,9.90
2018-05-27T01:35:47.551Z,9.57
2018-05-27T01:38:15.819Z,11.13
2018-05-27T01:40:44.055Z,9.07
2018-05-27T01:43:11.542Z,9.50
2018-05-27T01:45:39.027Z,10.00
2018-05-27T01:48:06.521Z,10.00
2018-05-27T01:50:34.022Z,9.10
2018-05-27T01:53:02.260Z,9.90
2018-05-27T01:55:29.755Z,10.30
2018-05-27T01:57:57.990Z,10.57
2018-05-27T02:00:25.484Z,10.00
2018-05-27T02:02:53.720Z,10.30
2018-05-27T02:05:21.220Z,9.63
2018-05-27T02:07:49.542Z,9.77
2018-05-27T02:10:17.887Z,10.20
2018-05-27T02:12:45.377Z,9.87
2018-05-27T02:15:12.848Z,10.80
2018-05-27T02:17:40.332Z,10.23
2018-05-27T02:20:07.832Z,11.23
2018-05-27T02:22:35.334Z,10.53
2018-05-27T02:25:02.899Z,9.80
2018-05-27T02:27:30.392Z,10.40
2018-05-27T02:29:58.660Z,9.67
2018-05-27T02:32:27.104Z,10.67
2018-05-27T02:34:54.617Z,10.80
2018-05-27T02:37:22.124Z,9.50
2018-05-27T02:39:49.656Z,10.30
2018-05-27T02:42:18.914Z,9.73
2018-05-27T02:44:46.433Z,11.17
2018-05-27T02:47:13.939Z,9.53
2018-05-27T02:49:41.475Z,11.07
2018-05-27T02:52:08.963Z,9.93
2018-05-27T02:54:36.462Z,10.83
2018-05-27T02:57:03.971Z,11.03
2018-05-27T02:59:31.451Z,10.47
2018-05-27T03:01:58.939Z,10.83
2018-05-27T03:04:26.440Z,10.83
2018-05-27T03:06:54.678Z,10.67
2018-05-27T03:09:22.190Z,10.60
2018-05-27T03:11:49.690Z,10.60
2018-05-27T03:14:17.208Z,10.77
2018-05-27T03:16:44.803Z,10.60
2018-05-27T03:19:12.337Z,10.43
2018-05-27T03:21:39.839Z,10.60
2018-05-27T03:24:07.364Z,10.10
2018-05-27T03:26:34.980Z,10.67
2018-05-27T03:29:02.521Z,10.60
2018-05-27T03:31:30.965Z,11.90
2018-05-27T03:33:59.073Z,9.93
2018-05-27T03:36:26.570Z,10.10
2018-05-27T03:38:54.149Z,9.70
2018-05-27T03:41:21.729Z,9.40
2018-05-27T03:43:49.271Z,10.30
2018-05-27T03:46:16.780Z,9.37
2018-05-27T03:48:44.280Z,10.00
2018-05-27T03:51:11.805Z,9.10
2018-05-27T03:53:39.321Z,10.50
2018-05-27T03:56:06.789Z,9.80
2018-05-27T03:58:34.263Z,9.40
2018-05-27T04:01:02.517Z,9.60
2018-05-27T04:03:30.802Z,9.80
2018-05-27T04:06:10.162Z,9.40
2018-05-27T04:08:38.434Z,9.40
2018-05-27T04:11:05.948Z,9.53
2018-05-27T04:13:33.413Z,9.50
2018-05-27T04:16:00.909Z,9.67
2018-05-27T04:18:28.432Z,10.20
2018-05-27T04:20:55.916Z,9.87
2018-05-27T04:23:23.444Z,9.73
2018-05-27T04:25:50.973Z,9.23
2018-05-27T04:28:18.519Z,8.90
2018-05-27T04:30:45.994Z,10.70
2018-05-27T04:33:13.496Z,11.40
2018-05-27T04:35:40.981Z,9.80
2018-05-27T04:38:09.207Z,11.17
2018-05-27T04:40:36.708Z,10.10
2018-05-27T04:43:04.190Z,10.03
2018-05-27T04:45:32.436Z,9.63
2018-05-27T04:48:00.711Z,9.37
2018-05-27T04:50:28.232Z,8.70
2018-05-27T04:52:55.719Z,8.50
2018-05-27T04:55:23.223Z,8.33
2018-05-27T04:57:50.719Z,8.93
2018-05-27T05:00:18.994Z,9.27
2018-05-27T05:02:49.610Z,8.10
2018-05-27T05:05:17.113Z,9.40
2018-05-27T05:07:45.358Z,7.30
2018-05-27T05:10:12.847Z,8.80
2018-05-27T05:12:40.349Z,8.37
2018-05-27T05:15:07.975Z,8.47
2018-05-27T05:17:35.511Z,7.90
2018-05-27T05:20:02.990Z,8.80
2018-05-27T05:22:30.467Z,7.47
2018-05-27T05:24:57.967Z,7.83
2018-05-27T05:27:25.439Z,8.03
2018-05-27T05:29:52.902Z,7.60
2018-05-27T05:32:20.376Z,7.73
2018-05-27T05:34:48.616Z,7.47
2018-05-27T05:37:16.093Z,7.00
2018-05-27T05:39:44.003Z,7.53
2018-05-27T05:42:11.509Z,7.90
2018-05-27T05:44:39.012Z,8.10
2018-05-27T05:47:07.211Z,7.13
2018-05-27T05:49:34.758Z,7.60
2018-05-27T05:52:02.263Z,6.90
2018-05-27T05:54:30.647Z,6.90
2018-05-27T05:56:58.130Z,7.20
2018-05-27T05:59:25.636Z,7.43
2018-05-27T06:01:53.130Z,7.20
2018-05-27T06:04:21.430Z,7.17
2018-05-27T06:06:49.048Z,6.80
2018-05-27T06:09:16.553Z,7.60
2018-05-27T06:11:44.025Z,7.10
2018-05-27T06:14:11.528Z,7.20
2018-05-27T06:16:38.987Z,7.20
2018-05-27T06:19:06.478Z,7.13
2018-05-27T06:21:34.728Z,6.80
2018-05-27T06:24:03.013Z,7.27
2018-05-27T06:26:31.775Z,6.60
2018-05-27T06:28:59.334Z,7.23
2018-05-27T06:31:26.824Z,6.90
2018-05-27T06:33:56.641Z,6.30
2018-05-27T06:36:24.233Z,6.70
2018-05-27T06:38:54.444Z,7.10
2018-05-27T06:41:21.950Z,6.50
2018-05-27T06:43:49.453Z,5.80
2018-05-27T06:46:16.969Z,6.20
2018-05-27T06:48:45.256Z,6.33
2018-05-27T06:51:12.791Z,7.50
2018-05-27T06:53:40.246Z,6.57
2018-05-27T06:56:07.848Z,6.70
2018-05-27T06:58:35.370Z,7.30
2018-05-27T07:01:02.841Z,7.53
2018-05-27T07:03:31.112Z,7.50
2018-05-27T07:05:58.615Z,7.20
2018-05-27T07:08:26.108Z,6.67
2018-05-27T07:10:53.635Z,6.90
2018-05-27T07:13:21.900Z,6.73
2018-05-27T07:15:49.408Z,7.07
2018-05-27T07:18:17.593Z,6.63
2018-05-27T07:20:45.073Z,7.90
2018-05-27T07:23:13.344Z,6.73
2018-05-27T07:25:41.843Z,6.97
2018-05-27T07:28:09.348Z,7.17
2018-05-27T07:30:36.844Z,6.73
2018-05-27T07:33:05.135Z,7.47
2018-05-27T07:35:32.635Z,7.00
2018-05-27T07:38:01.060Z,6.30
2018-05-27T07:40:29.315Z,6.07
2018-05-27T07:42:56.856Z,7.43
2018-05-27T07:45:24.736Z,6.90
2018-05-27T07:47:52.306Z,6.70
2018-05-27T07:50:19.765Z,6.23
2018-05-27T07:52:49.159Z,7.33
2018-05-27T07:55:16.655Z,6.80
2018-05-27T07:57:44.130Z,6.93
2018-05-27T08:00:11.636Z,6.93
2018-05-27T08:02:39.142Z,7.10
2018-05-27T08:05:06.646Z,7.53
2018-05-27T08:07:34.136Z,6.20
2018-05-27T08:10:01.646Z,6.40
2018-05-27T08:12:29.146Z,6.40
2018-05-27T08:14:57.407Z,6.77
2018-05-27T08:17:24.901Z,6.77
2018-05-27T08:19:52.484Z,9.20
2018-05-27T08:22:19.909Z,7.10
2018-05-27T08:24:47.502Z,8.80
2018-05-27T08:27:15.005Z,6.97
2018-05-27T08:29:42.502Z,6.80
2018-05-27T08:32:09.985Z,7.33
2018-05-27T08:34:37.470Z,7.20
2018-05-27T08:37:05.010Z,7.90
2018-05-27T08:39:32.504Z,7.60
2018-05-27T08:42:00.014Z,7.10
2018-05-27T08:44:29.824Z,7.93
2018-05-27T08:46:57.952Z,7.07
2018-05-27T08:49:25.469Z,7.30
2018-05-27T08:51:52.940Z,8.50
2018-05-27T08:54:20.457Z,7.73
2018-05-27T08:56:48.718Z,8.33
2018-05-27T08:59:16.227Z,8.00
2018-05-27T09:01:43.721Z,14.03
2018-05-27T09:04:11.220Z,18.40
2018-05-27T09:06:38.752Z,39.17
2018-05-27T09:09:06.291Z,28.60
2018-05-27T09:11:33.819Z,10.13
2018-05-27T09:14:01.325Z,12.40
2018-05-27T09:16:28.826Z,7.50
2018-05-27T09:18:56.422Z,6.37
2018-05-27T09:21:23.901Z,6.23
2018-05-27T09:23:51.382Z,5.93
2018-05-27T09:26:18.879Z,6.50
2018-05-27T09:28:46.363Z,6.07
2018-05-27T09:31:14.634Z,6.80
2018-05-27T09:33:43.196Z,7.53
2018-05-27T09:36:10.699Z,8.20
2018-05-27T09:38:38.503Z,7.13
2018-05-27T09:41:06.054Z,6.97
2018-05-27T09:43:33.571Z,7.77
2018-05-27T09:46:01.755Z,8.70
2018-05-27T09:48:29.549Z,7.37
2018-05-27T09:50:57.673Z,8.00
2018-05-27T09:53:25.204Z,7.63
2018-05-27T09:55:52.701Z,7.17
2018-05-27T09:58:20.208Z,8.00
2018-05-27T10:00:49.198Z,10.13
2018-05-27T10:03:16.717Z,10.27
2018-05-27T10:05:44.254Z,7.70
2018-05-27T10:08:12.544Z,11.80
2018-05-27T10:10:41.288Z,7.37
2018-05-27T10:13:08.780Z,8.40
2018-05-27T10:15:36.275Z,8.40
2018-05-27T10:18:03.758Z,8.53
2018-05-27T10:20:31.300Z,7.53
2018-05-27T10:22:58.785Z,7.07
2018-05-27T10:25:26.254Z,6.43
2018-05-27T10:27:53.770Z,6.70
2018-05-27T10:30:21.286Z,6.70
2018-05-27T10:32:49.421Z,6.60
2018-05-27T10:35:16.977Z,7.33
2018-05-27T10:37:44.496Z,7.13
2018-05-27T10:40:13.810Z,7.13
2018-05-27T10:42:41.342Z,6.77
2018-05-27T10:48:13.712Z,6.03
2018-05-27T10:50:44.447Z,7.20
2018-05-27T10:53:16.407Z,7.30
2018-05-27T10:55:46.896Z,6.73
2018-05-27T10:58:27.743Z,7.10
2018-05-27T11:01:02.552Z,7.27
2018-05-27T11:03:39.175Z,7.37
2018-05-27T11:06:06.714Z,6.80
2018-05-27T11:08:34.943Z,6.30
2018-05-27T11:11:03.294Z,7.27
2018-05-27T11:13:32.689Z,6.93
2018-05-27T11:16:00.245Z,6.70
2018-05-27T11:18:27.707Z,6.07
2018-05-27T11:20:57.688Z,5.80
2018-05-27T11:23:26.339Z,6.57
2018-05-27T11:25:53.842Z,6.40
2018-05-27T11:28:21.376Z,6.80
2018-05-27T11:30:48.928Z,5.63
2018-05-27T11:33:18.181Z,6.00
2018-05-27T11:35:45.664Z,5.80
2018-05-27T11:38:13.146Z,5.93
2018-05-27T11:40:40.680Z,5.60
2018-05-27T11:43:08.162Z,6.07
2018-05-27T11:45:36.419Z,5.37
2018-05-27T11:48:03.923Z,6.30
2018-05-27T11:50:31.424Z,6.17
2018-05-27T11:53:00.179Z,5.30
2018-05-27T11:55:27.910Z,4.90
2018-05-27T11:57:56.197Z,4.40
2018-05-27T12:00:24.442Z,5.43
2018-05-27T12:02:51.949Z,4.87
2018-05-27T12:05:19.652Z,5.83
2018-05-27T12:07:47.166Z,5.70
2018-05-27T12:10:14.656Z,5.23
2018-05-27T12:12:42.176Z,5.37
2018-05-27T12:15:09.661Z,5.33
2018-05-27T12:17:37.913Z,4.47
2018-05-27T12:20:05.387Z,5.03
2018-05-27T12:22:32.890Z,4.60
2018-05-27T12:25:00.353Z,4.60
2018-05-27T12:27:28.590Z,4.53
2018-05-27T12:29:56.154Z,4.87
2018-05-27T12:32:23.631Z,4.57
2018-05-27T12:34:51.131Z,4.63
2018-05-27T12:37:18.700Z,4.63
2018-05-27T12:39:46.189Z,4.67
2018-05-27T12:42:14.036Z,4.63
2018-05-27T12:44:41.538Z,5.10
2018-05-27T12:47:09.032Z,5.17
2018-05-27T12:49:36.544Z,4.50
2018-05-27T12:52:04.012Z,4.20
2018-05-27T12:54:31.534Z,4.70
2018-05-27T12:56:59.037Z,4.10
2018-05-27T12:59:26.512Z,3.93
2018-05-27T13:01:54.770Z,3.90
2018-05-27T13:04:23.057Z,4.50
2018-05-27T13:06:51.334Z,4.50
2018-05-27T13:09:19.571Z,4.23
2018-05-27T13:11:47.083Z,4.13
2018-05-27T13:14:14.554Z,4.70
2018-05-27T13:16:42.166Z,4.30
2018-05-27T13:19:09.533Z,4.37
2018-05-27T13:21:37.349Z,4.33
2018-05-27T13:24:04.904Z,4.80
2018-05-27T13:26:32.636Z,4.90
2018-05-27T13:29:00.132Z,4.30
2018-05-27T13:31:27.667Z,4.93
2018-05-27T13:33:55.157Z,4.20
2018-05-27T13:36:22.710Z,4.23
2018-05-27T13:38:50.247Z,4.27
2018-05-27T13:41:17.753Z,3.93
2018-05-27T13:43:45.240Z,3.90
2018-05-27T13:46:13.508Z,4.50
2018-05-27T13:48:41.769Z,4.10
2018-05-27T13:51:09.301Z,3.80
2018-05-27T13:53:36.834Z,4.50
2018-05-27T13:56:05.594Z,4.00
2018-05-27T13:58:33.852Z,4.50
2018-05-27T14:01:01.336Z,3.60
2018-05-27T14:03:29.585Z,3.53
2018-05-27T14:05:57.068Z,4.00
2018-05-27T14:08:24.572Z,3.73
2018-05-27T14:10:52.062Z,4.10
2018-05-27T14:13:19.580Z,4.10
2018-05-27T14:15:47.074Z,3.93
2018-05-27T14:18:14.574Z,3.93
2018-05-27T14:20:42.062Z,4.20
2018-05-27T14:23:09.573Z,4.63
2018-05-27T14:25:37.072Z,3.90
2018-05-27T14:28:04.593Z,4.77
2018-05-27T14:30:32.162Z,3.93
2018-05-27T14:33:00.449Z,5.00
2018-05-27T14:35:27.965Z,4.27
2018-05-27T14:37:56.243Z,4.80
2018-05-27T14:40:23.755Z,4.00
2018-05-27T14:42:52.020Z,4.10
2018-05-27T14:45:19.547Z,3.43
2018-05-27T14:47:47.784Z,3.93
2018-05-27T14:50:15.300Z,4.50
2018-05-27T14:52:42.791Z,3.50
2018-05-27T14:55:10.280Z,5.00
2018-05-27T14:57:37.802Z,4.80
2018-05-27T15:00:05.347Z,5.07
2018-05-27T15:02:32.832Z,5.33
2018-05-27T15:05:00.315Z,6.10
2018-05-27T15:07:27.827Z,7.13
2018-05-27T15:09:55.305Z,8.10
2018-05-27T15:12:22.830Z,7.67
2018-05-27T15:14:50.343Z,7.73
2018-05-27T15:17:17.843Z,6.90
2018-05-27T15:19:45.339Z,7.90
2018-05-27T15:22:12.872Z,7.23
2018-05-27T15:24:40.423Z,8.30
2018-05-27T15:27:08.684Z,8.27
2018-05-27T15:29:36.964Z,7.90
2018-05-27T15:32:04.496Z,8.00
2018-05-27T15:34:31.971Z,7.70
2018-05-27T15:36:59.436Z,7.97
2018-05-27T15:39:26.971Z,9.03
2018-05-27T15:41:55.216Z,8.37
2018-05-27T15:44:22.712Z,8.90
2018-05-27T15:46:51.000Z,8.77
2018-05-27T15:49:18.509Z,9.40
2018-05-27T15:51:46.426Z,9.90
2018-05-27T15:54:14.021Z,9.70
2018-05-27T15:56:41.527Z,9.07
2018-05-27T15:59:09.823Z,9.60
2018-05-27T16:01:37.294Z,10.23
2018-05-27T16:04:04.798Z,9.63
2018-05-27T16:06:32.317Z,10.13
2018-05-27T16:08:59.825Z,10.37
2018-05-27T16:11:27.346Z,10.00
2018-05-27T16:13:55.613Z,10.40
2018-05-27T16:16:23.139Z,10.07
2018-05-27T16:18:50.619Z,10.43
2018-05-27T16:21:19.955Z,10.27
2018-05-27T16:23:47.507Z,11.50
2018-05-27T16:26:15.032Z,11.50
2018-05-27T16:28:42.577Z,10.90
2018-05-27T16:31:10.847Z,11.00
2018-05-27T16:33:39.113Z,11.13
2018-05-27T16:36:07.873Z,12.33
2018-05-27T16:38:35.382Z,10.10
2018-05-27T16:41:02.904Z,10.37
2018-05-27T16:43:30.393Z,10.07
2018-05-27T16:45:57.882Z,9.30
2018-05-27T16:48:25.400Z,9.90
2018-05-27T16:50:53.661Z,9.57
2018-05-27T16:53:21.172Z,9.83
2018-05-27T16:55:49.526Z,8.27
2018-05-27T16:58:17.147Z,7.37
2018-05-27T17:00:50.727Z,6.20
2018-05-27T17:03:19.014Z,6.67
2018-05-27T17:05:46.513Z,6.57
2018-05-27T17:08:14.388Z,7.00
2018-05-27T17:10:41.923Z,6.83
2018-05-27T17:13:09.434Z,7.80
2018-05-27T17:15:36.933Z,7.70
2018-05-27T17:18:05.197Z,7.67
2018-05-27T17:20:32.675Z,7.97
2018-05-27T17:23:00.965Z,7.40
2018-05-27T17:25:28.471Z,8.30
2018-05-27T17:27:56.167Z,8.10
2018-05-27T17:30:23.688Z,8.43
2018-05-27T17:32:51.210Z,9.20
2018-05-27T17:35:18.726Z,9.67
2018-05-27T17:37:46.946Z,8.50
2018-05-27T17:40:14.465Z,8.40
2018-05-27T17:42:41.994Z,8.53
2018-05-27T17:45:09.516Z,8.83
2018-05-27T17:47:37.887Z,8.97
2018-05-27T17:50:05.402Z,9.23
2018-05-27T17:52:32.975Z,7.50
2018-05-27T17:55:00.456Z,9.67
2018-05-27T17:57:32.391Z,8.33
2018-05-27T18:00:06.140Z,8.50
2018-05-27T18:02:33.752Z,9.37
2018-05-27T18:05:02.050Z,9.17
2018-05-27T18:07:29.555Z,9.27
2018-05-27T18:10:00.888Z,8.93
2018-05-27T18:12:32.222Z,8.10
2018-05-27T18:15:03.033Z,9.27
2018-05-27T18:17:30.684Z,9.10
2018-05-27T18:20:06.737Z,9.73
2018-05-27T18:22:34.312Z,9.03
2018-05-27T18:25:03.084Z,8.93
2018-05-27T18:27:30.729Z,9.80
2018-05-27T18:29:58.689Z,10.00
2018-05-27T18:32:26.924Z,9.33
2018-05-27T18:34:56.479Z,10.87
2018-05-27T18:37:24.091Z,10.27
2018-05-27T18:39:51.929Z,11.57
2018-05-27T18:42:19.923Z,12.40
2018-05-27T18:44:50.974Z,10.90
2018-05-27T18:47:18.496Z,10.10
2018-05-27T18:49:46.019Z,8.67
2018-05-27T18:52:13.525Z,9.13
2018-05-27T18:54:41.786Z,9.20
2018-05-27T18:57:09.414Z,9.00
2018-05-27T18:59:37.695Z,9.40
2018-05-27T19:02:05.192Z,8.20
2018-05-27T19:04:32.704Z,8.57
2018-05-27T19:07:00.225Z,9.60
2018-05-27T19:09:27.775Z,8.93
2018-05-27T19:11:55.287Z,9.30
2018-05-27T19:14:22.777Z,10.63
2018-05-27T19:16:50.309Z,10.83
2018-05-27T19:19:17.918Z,11.63
2018-05-27T19:21:45.461Z,10.77
2018-05-27T19:24:12.985Z,10.47
2018-05-27T19:26:40.510Z,10.33
2018-05-27T19:29:08.016Z,10.43
2018-05-27T19:31:35.532Z,10.90
2018-05-27T19:34:03.042Z,9.77
2018-05-27T19:36:30.539Z,10.53
2018-05-27T19:38:58.182Z,9.70
2018-05-27T19:41:25.730Z,10.60
2018-05-27T19:43:53.258Z,11.27
2018-05-27T19:46:21.447Z,12.00
2018-05-27T19:48:48.950Z,12.80
2018-05-27T19:51:16.446Z,12.00
2018-05-27T19:53:44.734Z,11.47
2018-05-27T19:56:12.229Z,10.20
2018-05-27T19:58:39.747Z,11.30
2018-05-27T20:01:07.264Z,12.80
2018-05-27T20:03:34.761Z,10.20
2018-05-27T20:06:02.235Z,11.30
2018-05-27T20:08:29.777Z,10.27
2018-05-27T20:10:57.270Z,10.93
2018-05-27T20:13:25.195Z,9.93
2018-05-27T20:15:52.747Z,11.07
2018-05-27T20:18:20.230Z,10.30
2018-05-27T20:20:47.705Z,10.67
2018-05-27T20:23:15.310Z,11.30
2018-05-27T20:25:42.803Z,11.13
2018-05-27T20:28:10.294Z,11.47
2018-05-27T20:30:37.812Z,11.67
2018-05-27T20:33:05.296Z,12.73
2018-05-27T20:35:32.812Z,12.57
2018-05-27T20:38:00.318Z,12.73
2018-05-27T20:40:27.805Z,12.03
2018-05-27T20:42:55.289Z,13.00
2018-05-27T20:45:22.808Z,11.63
2018-05-27T20:47:50.349Z,12.03
2018-05-27T20:50:17.856Z,12.20
2018-05-27T20:52:46.187Z,11.27
2018-05-27T20:55:13.741Z,10.70
2018-05-27T20:57:41.315Z,10.00
2018-05-27T21:00:08.818Z,9.87
2018-05-27T21:02:36.337Z,9.13
2018-05-27T21:05:04.580Z,9.60
2018-05-27T21:07:32.085Z,10.13
2018-05-27T21:10:00.472Z,10.60
2018-05-27T21:12:28.676Z,11.93
2018-05-27T21:14:56.985Z,12.03
2018-05-27T21:17:25.457Z,12.73
2018-05-27T21:19:52.947Z,12.17
2018-05-27T21:22:21.318Z,12.00
2018-05-27T21:24:48.840Z,13.17
2018-05-27T21:27:16.339Z,12.40
2018-05-27T21:29:44.615Z,12.50
2018-05-27T21:32:12.904Z,12.03
2018-05-27T21:34:41.767Z,13.10
2018-05-27T21:37:09.389Z,12.37
2018-05-27T21:39:38.034Z,11.73
2018-05-27T21:42:05.564Z,11.93
2018-05-27T21:44:33.114Z,12.80
2018-05-27T21:47:00.617Z,12.13
2018-05-27T21:49:28.433Z,12.50
2018-05-27T21:51:55.978Z,12.07
2018-05-27T21:54:24.348Z,12.60
2018-05-27T21:56:51.852Z,12.10
2018-05-27T21:59:19.397Z,11.50
2018-05-27T22:01:46.903Z,11.33
2018-05-27T22:04:14.400Z,11.90
2018-05-27T22:06:41.929Z,11.83
2018-05-27T22:09:09.574Z,11.47
2018-05-27T22:11:37.090Z,11.70
2018-05-27T22:14:05.566Z,12.50
2018-05-27T22:16:33.033Z,11.50
2018-05-27T22:19:00.853Z,11.13
2018-05-27T22:21:29.058Z,10.90
2018-05-27T22:23:57.466Z,11.37
2018-05-27T22:26:24.959Z,9.70
2018-05-27T22:28:52.738Z,10.77
2018-05-27T22:31:20.264Z,10.20
2018-05-27T22:33:47.766Z,11.53
2018-05-27T22:36:15.323Z,11.43
2018-05-27T22:38:42.823Z,10.47
2018-05-27T22:41:10.289Z,9.73
2018-05-27T22:43:38.582Z,10.80
2018-05-27T22:46:07.423Z,8.80
2018-05-27T22:48:34.909Z,9.20
2018-05-27T22:51:03.180Z,9.70
2018-05-27T22:53:32.156Z,10.20
2018-05-27T22:55:59.739Z,11.10
2018-05-27T22:58:27.264Z,9.67
2018-05-27T23:00:55.580Z,8.90
2018-05-27T23:03:27.330Z,9.90
2018-05-27T23:05:55.575Z,9.60
2018-05-27T23:08:23.964Z,9.40
2018-05-27T23:10:52.050Z,8.37
2018-05-27T23:15:53.587Z,7.90
2018-05-27T23:18:21.081Z,9.23
2018-05-27T23:20:49.359Z,10.03
2018-05-27T23:23:17.613Z,8.87
2018-05-27T23:25:45.126Z,8.13
2018-05-27T23:28:12.652Z,8.97
2018-05-27T23:30:40.919Z,8.80
2018-05-27T23:33:08.419Z,9.03
2018-05-27T23:35:35.911Z,9.40
2018-05-27T23:38:04.624Z,8.40
2018-05-27T23:40:32.120Z,8.67
2018-05-27T23:42:59.593Z,9.77
2018-05-27T23:45:27.729Z,9.17
2018-05-27T23:47:55.213Z,7.83
2018-05-27T23:50:22.726Z,8.97
2018-05-27T23:52:50.241Z,8.23
2018-05-27T23:55:17.757Z,8.30
2018-05-27T23:57:47.055Z,8.03
